Parks, Arizona
Current Conditions -  °F | °C
As of 7:57 AM on Saturday 20 Dec 2014 (Local Time) from KFLG Reporting Station
Clear Clear  
Wind Chill: -8°   Ceiling: Unl
Heat Index: -8°   Visibility: 10mi
Dew Point: -10°   Wind: 0mph
Humidity: 84%   Direction: NA
Pressure: 30.18"   Gusts: NA
Location:  35.26°N, 111.95°W
Report Text: KFLG 201457Z AUTO 00000KT 10SM CLR M08/M10 A3018 RMK AO2 SLP243 I1000 I3000 T10781100 53009 TSNO
Loading
Personal Weather Stations






























Interactive Weather Map New forecast layout! Learn more

10-Day Weather Forecast

Advertisements
Track Severe Weather on mobile